createdAt,value
2018-09-14T00:00:47.323Z,9.90
2018-09-14T00:03:17.566Z,8.63
2018-09-14T00:05:48.911Z,9.77
2018-09-14T00:08:20.380Z,8.90
2018-09-14T00:10:52.123Z,9.03
2018-09-14T00:13:22.944Z,9.80
2018-09-14T00:15:53.656Z,9.87
2018-09-14T00:18:23.966Z,9.27
2018-09-14T00:20:54.440Z,8.60
2018-09-14T00:23:25.923Z,9.67
2018-09-14T00:25:56.139Z,8.90
2018-09-14T00:28:26.645Z,9.00
2018-09-14T00:30:57.484Z,8.40
2018-09-14T00:33:27.780Z,8.20
2018-09-14T00:35:58.755Z,9.77
2018-09-14T00:38:29.273Z,8.93
2018-09-14T00:41:00.074Z,9.30
2018-09-14T00:43:30.624Z,8.47
2018-09-14T00:46:01.164Z,8.20
2018-09-14T00:48:32.484Z,8.40
2018-09-14T00:51:02.815Z,8.30
2018-09-14T00:53:33.669Z,8.90
2018-09-14T00:56:04.200Z,8.37
2018-09-14T00:58:34.779Z,9.33
2018-09-14T01:01:05.391Z,7.80
2018-09-14T01:03:36.009Z,8.77
2018-09-14T01:06:06.761Z,8.97
2018-09-14T01:08:37.256Z,9.47
2018-09-14T01:11:07.478Z,9.37
2018-09-14T01:13:38.037Z,8.47
2018-09-14T01:16:08.527Z,7.93
2018-09-14T01:18:38.733Z,8.50
2018-09-14T01:21:10.441Z,10.03
2018-09-14T01:23:41.097Z,8.90
2018-09-14T01:26:11.457Z,9.23
2018-09-14T01:28:41.791Z,10.23
2018-09-14T01:31:12.719Z,10.50
2018-09-14T01:33:42.928Z,8.67
2018-09-14T01:36:13.508Z,9.07
2018-09-14T01:38:44.042Z,9.90
2018-09-14T01:41:14.572Z,10.00
2018-09-14T01:43:45.099Z,8.87
2018-09-14T01:46:17.931Z,10.13
2018-09-14T01:48:51.766Z,9.83
2018-09-14T01:51:22.321Z,10.97
2018-09-14T01:53:53.012Z,9.00
2018-09-14T01:56:23.530Z,9.30
2018-09-14T01:58:54.064Z,10.43
2018-09-14T02:01:24.313Z,11.10
2018-09-14T02:03:54.848Z,10.10
2018-09-14T02:06:26.940Z,10.43
2018-09-14T02:08:57.712Z,10.27
2018-09-14T02:11:27.931Z,11.07
2018-09-14T02:13:58.600Z,10.23
2018-09-14T02:16:29.400Z,11.30
2018-09-14T02:19:00.443Z,11.67
2018-09-14T02:21:31.010Z,12.40
2018-09-14T02:24:01.582Z,11.37
2018-09-14T02:26:31.903Z,11.57
2018-09-14T02:29:03.264Z,12.23
2018-09-14T02:31:33.734Z,12.83
2018-09-14T02:34:04.284Z,13.83
2018-09-14T02:36:35.072Z,12.30
2018-09-14T02:39:07.745Z,12.67
2018-09-14T02:41:38.245Z,12.97
2018-09-14T02:44:08.811Z,12.87
2018-09-14T02:46:39.335Z,13.07
2018-09-14T02:49:14.464Z,13.13
2018-09-14T02:51:45.001Z,12.83
2018-09-14T02:54:15.550Z,13.03
2018-09-14T02:56:46.355Z,12.90
2018-09-14T02:59:16.880Z,14.13
2018-09-14T03:01:47.137Z,14.97
2018-09-14T03:04:17.406Z,13.60
2018-09-14T03:06:48.185Z,13.90
2018-09-14T03:09:18.436Z,14.90
2018-09-14T03:11:49.075Z,16.10
2018-09-14T03:14:19.780Z,15.53
2018-09-14T03:16:50.031Z,15.47
2018-09-14T03:19:20.557Z,14.93
2018-09-14T03:21:51.009Z,17.47
2018-09-14T03:24:21.688Z,14.90
2018-09-14T03:26:52.215Z,14.50
2018-09-14T03:29:22.986Z,15.70
2018-09-14T03:31:54.324Z,16.27
2018-09-14T03:34:24.552Z,15.40
2018-09-14T03:36:55.268Z,14.50
2018-09-14T03:39:26.723Z,15.27
2018-09-14T03:41:57.360Z,15.50
2018-09-14T03:44:28.104Z,14.67
2018-09-14T03:46:58.612Z,13.93
2018-09-14T03:49:29.234Z,14.50
2018-09-14T03:52:00.364Z,14.80
2018-09-14T03:54:31.049Z,16.03
2018-09-14T03:57:04.807Z,15.43
2018-09-14T03:59:37.944Z,15.33
2018-09-14T04:02:08.566Z,15.17
2018-09-14T04:04:39.321Z,15.27
2018-09-14T04:07:09.942Z,14.27
2018-09-14T04:09:40.977Z,13.60
2018-09-14T04:12:11.501Z,13.10
2018-09-14T04:14:42.457Z,13.27
2018-09-14T04:17:13.091Z,13.57
2018-09-14T04:19:43.960Z,12.90
2018-09-14T04:22:14.511Z,11.53
2018-09-14T04:24:45.964Z,12.17
2018-09-14T04:27:16.464Z,12.13
2018-09-14T04:29:47.005Z,11.07
2018-09-14T04:32:17.521Z,11.57
2018-09-14T04:34:48.271Z,12.53
2018-09-14T04:37:18.912Z,12.43
2018-09-14T04:39:49.840Z,12.17
2018-09-14T04:42:22.035Z,12.13
2018-09-14T04:44:52.367Z,11.27
2018-09-14T04:47:22.913Z,12.53
2018-09-14T04:49:53.871Z,12.47
2018-09-14T04:52:24.399Z,12.67
2018-09-14T04:54:54.617Z,12.20
2018-09-14T04:57:25.348Z,11.90
2018-09-14T04:59:56.400Z,12.20
2018-09-14T05:02:26.983Z,11.73
2018-09-14T05:04:57.512Z,12.80
2018-09-14T05:07:29.673Z,11.57
2018-09-14T05:10:00.431Z,10.93
2018-09-14T05:12:31.361Z,12.73
2018-09-14T05:15:01.819Z,11.60
2018-09-14T05:17:33.581Z,11.47
2018-09-14T05:20:07.024Z,10.97
2018-09-14T05:22:37.458Z,11.47
2018-09-14T05:25:08.898Z,11.17
2018-09-14T05:27:39.314Z,10.00
2018-09-14T05:30:09.575Z,10.47
2018-09-14T05:32:40.041Z,10.70
2018-09-14T05:35:10.343Z,11.70
2018-09-14T05:37:40.863Z,10.37
2018-09-14T05:40:11.111Z,10.43
2018-09-14T05:42:41.604Z,11.23
2018-09-14T05:45:13.348Z,10.30
2018-09-14T05:47:43.890Z,11.10
2018-09-14T05:50:14.435Z,11.83
2018-09-14T05:52:45.133Z,10.73
2018-09-14T05:55:15.703Z,10.10
2018-09-14T05:57:46.276Z,11.00
2018-09-14T06:00:17.160Z,10.63
2018-09-14T06:02:47.789Z,10.50
2018-09-14T06:05:18.201Z,10.50
2018-09-14T06:07:48.544Z,11.13
2018-09-14T06:10:19.891Z,11.90
2018-09-14T06:12:51.049Z,11.40
2018-09-14T06:15:22.165Z,11.90
2018-09-14T06:17:53.018Z,13.20
2018-09-14T06:20:27.055Z,10.97
2018-09-14T06:22:57.598Z,12.10
2018-09-14T06:25:28.420Z,13.37
2018-09-14T06:27:58.804Z,12.27
2018-09-14T06:30:29.363Z,11.23
2018-09-14T06:33:00.051Z,12.20
2018-09-14T06:35:30.419Z,11.13
2018-09-14T06:38:00.941Z,12.87
2018-09-14T06:40:33.632Z,12.20
2018-09-14T06:43:03.866Z,12.30
2018-09-14T06:45:34.720Z,12.37
2018-09-14T06:48:05.791Z,12.27
2018-09-14T06:50:36.396Z,12.10
2018-09-14T06:53:06.952Z,12.93
2018-09-14T06:55:37.564Z,12.33
2018-09-14T06:58:07.804Z,13.20
2018-09-14T07:00:38.329Z,12.90
2018-09-14T07:03:10.231Z,14.40
2018-09-14T07:05:40.533Z,14.23
2018-09-14T07:08:11.335Z,13.10
2018-09-14T07:10:41.885Z,13.03
2018-09-14T07:13:12.478Z,14.90
2018-09-14T07:15:44.453Z,15.10
2018-09-14T07:18:15.006Z,14.97
2018-09-14T07:20:45.642Z,15.20
2018-09-14T07:23:16.381Z,15.10
2018-09-14T07:25:46.878Z,14.83
2018-09-14T07:28:17.948Z,15.20
2018-09-14T07:30:49.075Z,14.87
2018-09-14T07:33:19.788Z,14.43
2018-09-14T07:35:50.476Z,14.60
2018-09-14T07:38:20.735Z,13.57
2018-09-14T07:40:51.543Z,13.70
2018-09-14T07:43:21.780Z,14.53
2018-09-14T07:45:52.474Z,14.93
2018-09-14T07:48:23.049Z,15.10
2018-09-14T07:50:53.740Z,15.60
2018-09-14T07:53:24.329Z,14.80
2018-09-14T07:55:54.996Z,14.70
2018-09-14T07:58:25.574Z,15.50
2018-09-14T08:00:56.112Z,15.33
2018-09-14T08:03:26.632Z,15.93
2018-09-14T08:05:57.228Z,16.57
2018-09-14T08:08:30.418Z,15.90
2018-09-14T08:11:00.646Z,16.77
2018-09-14T08:13:31.151Z,16.30
2018-09-14T08:16:01.563Z,16.07
2018-09-14T08:18:32.318Z,16.67
2018-09-14T08:21:02.920Z,16.07
2018-09-14T08:23:33.430Z,17.40
2018-09-14T08:26:04.328Z,16.77
2018-09-14T08:28:48.090Z,15.33
2018-09-14T08:31:18.737Z,17.70
2018-09-14T08:33:49.556Z,15.13
2018-09-14T08:36:20.796Z,15.27
2018-09-14T08:38:51.526Z,13.80
2018-09-14T08:41:21.744Z,16.10
2018-09-14T08:43:53.109Z,14.47
2018-09-14T08:46:23.633Z,15.37
2018-09-14T08:48:54.292Z,16.27
2018-09-14T08:51:24.896Z,15.10
2018-09-14T08:53:59.220Z,16.43
2018-09-14T08:56:29.740Z,14.90
2018-09-14T08:59:00.148Z,15.30
2018-09-14T09:01:31.307Z,15.03
2018-09-14T09:04:01.521Z,16.80
2018-09-14T09:06:31.784Z,16.50
2018-09-14T09:09:02.424Z,16.13
2018-09-14T09:11:32.927Z,15.77
2018-09-14T09:14:03.822Z,14.77
2018-09-14T09:16:35.013Z,16.07
2018-09-14T09:19:05.921Z,16.63
2018-09-14T09:21:37.971Z,16.40
2018-09-14T09:24:08.340Z,15.07
2018-09-14T09:26:38.639Z,17.97
2018-09-14T09:29:10.814Z,14.27
2018-09-14T09:31:41.488Z,16.53
2018-09-14T09:34:12.132Z,16.13
2018-09-14T09:36:42.753Z,15.50
2018-09-14T09:39:13.919Z,16.47
2018-09-14T09:41:44.457Z,16.50
2018-09-14T09:44:15.469Z,16.43
2018-09-14T09:46:46.063Z,15.50
2018-09-14T09:49:16.845Z,16.17
2018-09-14T09:51:47.489Z,15.50
2018-09-14T09:54:17.756Z,16.70
2018-09-14T09:56:48.489Z,15.00
2018-09-14T09:59:19.149Z,16.13
2018-09-14T10:01:54.865Z,14.03
2018-09-14T10:04:30.297Z,15.33
2018-09-14T10:07:01.040Z,16.90
2018-09-14T10:09:31.551Z,15.20
2018-09-14T10:12:02.381Z,14.93
2018-09-14T10:14:32.628Z,13.60
2018-09-14T10:17:03.162Z,13.90
2018-09-14T10:19:33.568Z,15.23
2018-09-14T10:22:03.853Z,14.47
2018-09-14T10:24:34.101Z,14.80
2018-09-14T10:27:04.624Z,13.57
2018-09-14T10:29:35.407Z,14.27
2018-09-14T10:32:05.943Z,12.87
2018-09-14T10:34:38.135Z,11.77
2018-09-14T10:37:09.885Z,13.10
2018-09-14T10:39:40.263Z,12.63
2018-09-14T10:42:10.510Z,13.20
2018-09-14T10:44:42.167Z,13.50
2018-09-14T10:47:12.576Z,11.53
2018-09-14T10:49:42.920Z,12.57
2018-09-14T10:52:13.473Z,12.07
2018-09-14T10:54:44.189Z,12.20
2018-09-14T10:57:14.911Z,12.67
2018-09-14T10:59:45.142Z,12.27
2018-09-14T11:02:17.517Z,12.83
2018-09-14T11:04:47.838Z,11.40
2018-09-14T11:07:18.913Z,11.57
2018-09-14T11:09:49.522Z,13.07
2018-09-14T11:12:20.350Z,12.40
2018-09-14T11:14:52.081Z,12.70
2018-09-14T11:17:22.932Z,12.17
2018-09-14T11:19:53.948Z,11.50
2018-09-14T11:22:24.314Z,12.00
2018-09-14T11:24:55.196Z,11.20
2018-09-14T11:27:26.027Z,12.70
2018-09-14T11:29:56.741Z,11.83
2018-09-14T11:32:28.072Z,13.87
2018-09-14T11:34:59.364Z,13.20
2018-09-14T11:37:29.974Z,13.70
2018-09-14T11:40:01.767Z,12.70
2018-09-14T11:42:32.478Z,12.07
2018-09-14T11:45:03.187Z,11.60
2018-09-14T11:47:33.887Z,11.30
2018-09-14T11:50:05.063Z,12.30
2018-09-14T11:52:35.885Z,13.80
2018-09-14T11:55:06.484Z,13.50
2018-09-14T11:57:36.925Z,11.27
2018-09-14T12:00:07.794Z,11.00
2018-09-14T12:02:39.503Z,11.33
2018-09-14T12:05:10.094Z,12.17
2018-09-14T12:07:40.619Z,11.80
2018-09-14T12:10:11.177Z,12.00
2018-09-14T12:12:41.979Z,12.80
2018-09-14T12:15:12.221Z,13.27
2018-09-14T12:17:42.710Z,12.80
2018-09-14T12:20:13.184Z,11.90
2018-09-14T12:22:43.747Z,12.17
2018-09-14T12:25:13.987Z,11.83
2018-09-14T12:27:44.502Z,13.10
2018-09-14T12:30:15.082Z,11.57
2018-09-14T12:32:45.544Z,11.07
2018-09-14T12:35:16.688Z,10.57
2018-09-14T12:37:47.548Z,12.00
2018-09-14T12:40:18.742Z,11.80
2018-09-14T12:42:49.020Z,10.43
2018-09-14T12:45:19.546Z,10.57
2018-09-14T12:47:50.416Z,10.53
2018-09-14T12:50:21.160Z,11.53
2018-09-14T12:52:51.948Z,12.00
2018-09-14T12:55:22.627Z,11.73
2018-09-14T12:57:53.133Z,11.00
2018-09-14T13:00:23.668Z,11.13
2018-09-14T13:02:54.716Z,10.93
2018-09-14T13:05:25.204Z,10.73
2018-09-14T13:07:55.745Z,10.43
2018-09-14T13:10:26.355Z,10.60
2018-09-14T13:12:57.723Z,9.87
2018-09-14T13:15:28.426Z,9.97
2018-09-14T13:17:58.833Z,9.80
2018-09-14T13:20:29.573Z,11.57
2018-09-14T13:22:59.851Z,10.07
2018-09-14T13:25:30.391Z,9.80
2018-09-14T13:28:00.979Z,11.27
2018-09-14T13:30:31.922Z,11.03
2018-09-14T13:33:02.681Z,11.40
2018-09-14T13:35:33.666Z,12.50
2018-09-14T13:38:04.260Z,11.97
2018-09-14T13:40:34.759Z,12.10
2018-09-14T13:43:05.031Z,13.80
2018-09-14T13:45:35.860Z,12.27
2018-09-14T13:48:06.422Z,15.83
2018-09-14T13:50:36.973Z,15.73
2018-09-14T13:53:07.474Z,14.33
2018-09-14T13:55:38.035Z,16.33
2018-09-14T13:58:08.948Z,16.40
2018-09-14T14:00:39.540Z,15.27
2018-09-14T14:03:09.800Z,16.20
2018-09-14T14:05:40.068Z,14.93
2018-09-14T14:08:10.560Z,15.90
2018-09-14T14:10:41.084Z,15.27
2018-09-14T14:13:11.400Z,14.10
2018-09-14T14:15:41.893Z,14.90
2018-09-14T14:18:12.283Z,14.97
2018-09-14T14:20:43.279Z,14.10
2018-09-14T14:23:13.789Z,14.50
2018-09-14T14:25:44.881Z,16.00
2018-09-14T14:28:15.332Z,13.83
2018-09-14T14:30:46.015Z,13.67
2018-09-14T14:33:16.520Z,14.17
2018-09-14T14:35:47.409Z,13.63
2018-09-14T14:38:17.929Z,14.40
2018-09-14T14:40:48.439Z,14.93
2018-09-14T14:43:18.996Z,15.87
2018-09-14T14:45:50.014Z,15.83
2018-09-14T14:48:20.655Z,15.50
2018-09-14T14:50:51.448Z,14.33
2018-09-14T14:53:21.952Z,16.43
2018-09-14T14:55:52.541Z,14.00
2018-09-14T14:58:23.348Z,14.27
2018-09-14T15:00:53.855Z,13.30
2018-09-14T15:03:25.029Z,13.33
2018-09-14T15:05:55.532Z,14.80
2018-09-14T15:08:26.255Z,16.07
2018-09-14T15:10:56.928Z,15.53
2018-09-14T15:13:27.452Z,14.73
2018-09-14T15:15:58.295Z,14.20
2018-09-14T15:18:28.940Z,16.40
2018-09-14T15:20:59.509Z,15.70
2018-09-14T15:23:29.722Z,15.40
2018-09-14T15:25:59.979Z,13.73
2018-09-14T15:28:30.204Z,15.97
2018-09-14T15:31:00.911Z,17.33
2018-09-14T15:33:31.476Z,16.60
2018-09-14T15:36:01.999Z,13.77
2018-09-14T15:38:32.407Z,15.80
2018-09-14T15:41:02.956Z,14.37
2018-09-14T15:43:33.355Z,14.83
2018-09-14T15:46:04.052Z,16.20
2018-09-14T15:48:34.586Z,15.60
2018-09-14T15:51:05.355Z,13.40
2018-09-14T15:53:35.985Z,11.17
2018-09-14T15:56:07.086Z,12.50
2018-09-14T15:58:37.968Z,11.33
2018-09-14T16:01:08.581Z,10.20
2018-09-14T16:03:39.301Z,10.83
2018-09-14T16:06:09.592Z,10.70
2018-09-14T16:08:39.899Z,8.07
2018-09-14T16:11:10.434Z,8.90
2018-09-14T16:13:41.339Z,7.50
2018-09-14T16:16:11.984Z,6.63
2018-09-14T16:18:42.260Z,7.43
2018-09-14T16:21:12.820Z,7.07
2018-09-14T16:23:43.359Z,7.97
2018-09-14T16:26:14.061Z,7.00
2018-09-14T16:28:44.612Z,6.30
2018-09-14T16:31:15.404Z,6.50
2018-09-14T16:33:46.417Z,6.57
2018-09-14T16:36:16.897Z,6.57
2018-09-14T16:38:47.649Z,7.17
2018-09-14T16:41:18.150Z,6.33
2018-09-14T16:43:49.037Z,6.20
2018-09-14T16:46:19.628Z,6.47
2018-09-14T16:48:50.388Z,6.27
2018-09-14T16:51:21.442Z,4.77
2018-09-14T16:53:52.124Z,5.00
2018-09-14T16:56:22.820Z,4.87
2018-09-14T16:58:53.333Z,4.67
2018-09-14T17:01:23.641Z,4.40
2018-09-14T17:03:57.274Z,4.50
2018-09-14T17:06:27.541Z,4.10
2018-09-14T17:08:58.391Z,4.13
2018-09-14T17:11:29.200Z,9.30
2018-09-14T17:14:00.067Z,4.40
2018-09-14T17:16:30.613Z,3.47
2018-09-14T17:19:03.912Z,3.50
2018-09-14T17:21:34.730Z,3.20
2018-09-14T17:24:05.569Z,4.03
2018-09-14T17:26:36.139Z,3.93
2018-09-14T17:29:06.691Z,3.67
2018-09-14T17:31:37.259Z,4.40
2018-09-14T17:34:22.669Z,3.57
2018-09-14T17:36:53.213Z,3.23
2018-09-14T17:39:23.724Z,4.10
2018-09-14T17:41:54.272Z,6.20
2018-09-14T17:44:24.849Z,4.10
2018-09-14T17:46:55.658Z,3.57
2018-09-14T17:49:26.650Z,3.77
2018-09-14T17:51:57.063Z,3.40
2018-09-14T17:54:27.579Z,9.10
2018-09-14T17:56:57.918Z,3.70
2018-09-14T17:59:28.949Z,3.57
2018-09-14T18:01:59.716Z,4.20
2018-09-14T18:04:30.264Z,3.30
2018-09-14T18:07:00.658Z,3.73
2018-09-14T18:09:31.076Z,3.70
2018-09-14T18:12:01.830Z,4.07
2018-09-14T18:14:32.420Z,4.10
2018-09-14T18:17:02.729Z,3.60
2018-09-14T18:19:34.366Z,3.77
2018-09-14T18:22:04.885Z,4.17
2018-09-14T18:24:35.724Z,5.30
2018-09-14T18:27:06.557Z,5.20
2018-09-14T18:29:37.084Z,4.40
2018-09-14T18:32:07.965Z,4.27
2018-09-14T18:34:39.100Z,5.30
2018-09-14T18:37:10.192Z,5.40
2018-09-14T18:39:40.871Z,4.87
2018-09-14T18:42:11.560Z,4.93
2018-09-14T18:44:42.505Z,4.80
2018-09-14T18:47:12.794Z,4.30
2018-09-14T18:49:43.561Z,5.07
2018-09-14T18:52:14.052Z,5.10
2018-09-14T18:54:44.513Z,4.83
2018-09-14T18:57:16.418Z,5.00
2018-09-14T18:59:47.625Z,4.90
2018-09-14T19:02:17.986Z,4.10
2018-09-14T19:04:48.698Z,5.07
2018-09-14T19:07:19.792Z,4.63
2018-09-14T19:09:50.067Z,4.00
2018-09-14T19:12:21.176Z,4.50
2018-09-14T19:14:51.808Z,4.87
2018-09-14T19:17:22.385Z,4.20
2018-09-14T19:19:53.920Z,4.70
2018-09-14T19:22:24.494Z,4.57
2018-09-14T19:24:54.996Z,4.37
2018-09-14T19:27:26.009Z,4.40
2018-09-14T19:29:56.566Z,4.23
2018-09-14T19:32:26.940Z,3.70
2018-09-14T19:34:57.304Z,4.20
2018-09-14T19:37:27.848Z,3.90
2018-09-14T19:39:58.705Z,4.03
2018-09-14T19:42:29.004Z,4.33
2018-09-14T19:44:59.736Z,4.93
2018-09-14T19:47:30.089Z,4.80
2018-09-14T19:50:00.487Z,4.67
2018-09-14T19:52:32.414Z,4.60
2018-09-14T19:55:03.118Z,6.37
2018-09-14T19:57:33.415Z,5.00
2018-09-14T20:00:04.349Z,4.90
2018-09-14T20:02:34.892Z,5.30
2018-09-14T20:05:06.847Z,5.07
2018-09-14T20:07:37.516Z,5.03
2018-09-14T20:10:08.055Z,5.60
2018-09-14T20:12:38.404Z,6.70
2018-09-14T20:15:10.053Z,5.70
2018-09-14T20:17:40.984Z,6.23
2018-09-14T20:20:12.304Z,6.40
2018-09-14T20:22:44.434Z,6.50
2018-09-14T20:25:14.712Z,9.00
2018-09-14T20:27:45.567Z,7.13
2018-09-14T20:30:16.107Z,8.50
2018-09-14T20:32:47.628Z,8.27
2018-09-14T20:35:17.976Z,7.53
2018-09-14T20:37:48.767Z,8.77
2018-09-14T20:40:19.502Z,8.90
2018-09-14T20:42:50.280Z,9.33
2018-09-14T20:45:20.852Z,9.50
2018-09-14T20:47:51.384Z,9.90
2018-09-14T20:50:22.000Z,8.67
2018-09-14T20:52:52.276Z,8.80
2018-09-14T20:55:22.829Z,9.30
2018-09-14T20:57:54.375Z,10.00
2018-09-14T21:00:25.726Z,10.07
2018-09-14T21:02:56.602Z,9.60
2018-09-14T21:05:27.741Z,10.03
2018-09-14T21:07:58.274Z,10.77
2018-09-14T21:10:28.743Z,9.97
2018-09-14T21:12:59.532Z,9.87
2018-09-14T21:15:30.197Z,9.97
2018-09-14T21:18:00.480Z,9.57
2018-09-14T21:20:31.106Z,10.33
2018-09-14T21:23:01.471Z,11.40
2018-09-14T21:25:32.203Z,11.27
2018-09-14T21:28:02.752Z,10.37
2018-09-14T21:30:33.528Z,10.60
2018-09-14T21:33:04.272Z,11.03
2018-09-14T21:35:34.970Z,11.67
2018-09-14T21:38:05.531Z,11.03
2018-09-14T21:40:36.236Z,12.03
2018-09-14T21:43:06.996Z,12.80
2018-09-14T21:45:37.565Z,12.97
2018-09-14T21:48:08.012Z,13.90
2018-09-14T21:50:39.459Z,14.37
2018-09-14T21:53:10.337Z,14.43
2018-09-14T21:55:41.040Z,14.33
2018-09-14T21:58:11.759Z,13.03
2018-09-14T22:00:47.563Z,15.70
2018-09-14T22:03:18.182Z,16.23
2018-09-14T22:05:48.623Z,16.23
2018-09-14T22:08:19.903Z,18.60
2018-09-14T22:10:50.422Z,19.77
2018-09-14T22:13:21.544Z,17.77
2018-09-14T22:15:52.129Z,20.47
2018-09-14T22:18:22.717Z,22.33
2018-09-14T22:20:53.521Z,20.97
2018-09-14T22:23:24.251Z,23.63
2018-09-14T22:25:54.806Z,22.03
2018-09-14T22:28:25.459Z,21.53
2018-09-14T22:30:56.432Z,22.20
2018-09-14T22:33:26.757Z,24.03
2018-09-14T22:35:57.532Z,22.63
2018-09-14T22:38:28.076Z,24.30
2018-09-14T22:40:58.575Z,22.90
2018-09-14T22:43:28.863Z,24.07
2018-09-14T22:45:59.626Z,24.27
2018-09-14T22:48:30.264Z,23.93
2018-09-14T22:51:00.500Z,24.57
2018-09-14T22:53:34.212Z,23.50
2018-09-14T22:56:04.876Z,24.63
2018-09-14T22:58:35.354Z,25.53
2018-09-14T23:01:10.854Z,23.47
2018-09-14T23:03:42.588Z,25.33
2018-09-14T23:06:13.144Z,25.10
2018-09-14T23:08:44.372Z,25.20
2018-09-14T23:11:15.183Z,27.23
2018-09-14T23:13:46.163Z,27.77
2018-09-14T23:16:16.800Z,29.50
2018-09-14T23:18:47.483Z,28.83
2018-09-14T23:21:18.020Z,28.90
2018-09-14T23:23:48.356Z,30.50
2018-09-14T23:26:22.033Z,31.27
2018-09-14T23:28:52.378Z,28.17
2018-09-14T23:31:23.074Z,27.80
2018-09-14T23:33:53.924Z,28.10
2018-09-14T23:36:24.740Z,28.27
2018-09-14T23:38:55.040Z,28.00
2018-09-14T23:41:25.784Z,27.63
2018-09-14T23:43:56.355Z,26.30
2018-09-14T23:46:27.179Z,27.63
2018-09-14T23:48:57.684Z,29.93
2018-09-14T23:51:28.180Z,28.80
2018-09-14T23:53:58.713Z,29.60
2018-09-14T23:56:29.244Z,26.80
2018-09-14T23:58:59.837Z,28.80
